M I D A S
Marine Information and Data Acquisition System
Tripno 1083 of the Zeeleeuw from 2006-05-15 11:44:25 to 2006-05-15 13:55:33
Back to CruiseResearch ActivitiesStationsMapUnderway DataData graphs

EquipmentUnitsComment
TimeDGPSUTC
LatitudeDGPSDM.mWGS84
LongitudeDGPSDM.mWGS84
HeadingGyrodeg 
SOGDGPSknotsSpeed over ground
COGDGPSdegCourse over ground
DepthEcho soundermeters200 kHz
Missing or incorrect values are displayed as -999
Navigation data collected by the RV Zeeleeuw from 2006-05-15 07:32:01 to 2006-05-15 14:08:45
Time Latitude Longitude Heading SOG COG Depth
2006-05-15 07:33:05 51°13.6 2°56.099 123.1 -999 259 -999
2006-05-15 07:34:05 51°13.6 2°56.099 118 -999 176 -999
2006-05-15 07:35:05 51°13.599 2°56.098 110.3 0.1 198 -999
2006-05-15 07:36:05 51°13.599 2°56.095 102.3 0.7 283 -999
2006-05-15 07:37:05 51°13.613 2°56.005 105.1 4.4 284 -999
2006-05-15 07:38:05 51°13.635 2°55.905 123.5 3.7 297 -999
2006-05-15 07:39:05 51°13.676 2°55.824 140.8 4.4 316 -999
2006-05-15 07:40:05 51°13.732 2°55.748 136.4 4.1 316 -999
2006-05-15 07:41:05 51°13.751 2°55.723 97 1.3 81 9
2006-05-15 07:42:05 51°13.744 2°55.692 65.2 2.1 246 -999
2006-05-15 07:43:05 51°13.755 2°55.684 21.2 2.3 12 8.8
2006-05-15 07:44:05 51°13.799 2°55.665 336.1 3.8 333 -999
2006-05-15 07:45:05 51°13.877 2°55.604 339.6 6.1 336 -999
2006-05-15 07:46:05 51°13.977 2°55.534 339.2 6.7 335 -999
2006-05-15 07:47:05 51°14.078 2°55.453 335.8 6.9 332 9.1
2006-05-15 07:48:04 51°14.176 2°55.361 331.9 7.2 327 9.1
2006-05-15 07:49:05 51°14.277 2°55.224 318.5 8.4 314 -999
2006-05-15 07:50:05 51°14.374 2°55.055 315 8.8 310 9.1
2006-05-15 07:51:05 51°14.436 2°54.849 292.2 8.8 285 8.7
2006-05-15 07:52:05 51°14.478 2°54.569 296.3 12.4 289 9
2006-05-15 07:53:04 51°14.547 2°54.238 292.5 13.8 284 9.4
2006-05-15 07:54:05 51°14.61 2°53.883 295.9 13.6 287 8.7
2006-05-15 07:55:05 51°14.651 2°53.538 283.4 13 275 7.1
2006-05-15 07:56:05 51°14.649 2°53.186 272.6 13.5 266 7.1
2006-05-15 07:57:05 51°14.643 2°52.828 276.3 13.7 267 7.3
2006-05-15 07:58:05 51°14.599 2°52.466 264.4 14 258 7.6
2006-05-15 07:59:04 51°14.554 2°52.109 265.6 13.9 260 7.6
2006-05-15 08:00:05 51°14.538 2°51.735 277.7 13.9 270 7.8
2006-05-15 08:01:05 51°14.501 2°51.369 259.9 14.1 254 7.9
2006-05-15 08:02:05 51°14.457 2°51.005 271.7 14 265 8
2006-05-15 08:03:05 51°14.407 2°50.64 259.6 14.2 254 8.3
2006-05-15 08:04:05 51°14.353 2°50.275 267.8 14.2 262 8.5
2006-05-15 08:05:05 51°14.309 2°49.904 259.6 14.3 254 9
2006-05-15 08:06:05 51°14.243 2°49.537 263.7 14.4 257 9.4
2006-05-15 08:07:05 51°14.181 2°49.167 257.5 14.4 253 9.6
2006-05-15 08:08:05 51°14.119 2°48.799 261.2 14.4 255 9.7
2006-05-15 08:09:05 51°14.053 2°48.432 263.4 14.3 258 9.8
2006-05-15 08:10:05 51°14.021 2°48.129 267.3 8.7 258 10.1
2006-05-15 08:11:05 51°13.988 2°48.003 227 2.1 241 10.1
2006-05-15 08:12:05 51°13.983 2°47.978 236.9 1 240 -999
2006-05-15 08:13:05 51°13.975 2°47.953 243.8 1.1 239 10.1
2006-05-15 08:14:05 51°13.966 2°47.926 254 1.2 251 10.2
2006-05-15 08:15:05 51°13.957 2°47.897 263.7 1.3 239 10.1
2006-05-15 08:16:05 51°13.949 2°47.867 272.5 1.3 244 10.2
2006-05-15 08:17:05 51°13.94 2°47.836 279.5 1.2 249 10.2
2006-05-15 08:18:05 51°13.932 2°47.804 285.2 1.4 247 10.2
2006-05-15 08:19:05 51°13.923 2°47.769 288.7 1.4 251 10.3
2006-05-15 08:20:05 51°13.915 2°47.734 289.8 1.4 252 10.2
2006-05-15 08:21:05 51°13.907 2°47.697 287.2 1.4 253 10.3
2006-05-15 08:22:05 51°13.898 2°47.659 283.4 1.6 249 10.2
2006-05-15 08:23:05 51°13.889 2°47.621 278.7 1.5 254 10.3
2006-05-15 08:24:05 51°13.88 2°47.581 274.3 1.7 248 10.3
2006-05-15 08:25:05 51°13.881 2°47.484 302.8 5.9 289 10.1
2006-05-15 08:26:05 51°13.956 2°47.409 13.4 5 -999 10.1
2006-05-15 08:27:05 51°14.017 2°47.49 68.3 5.1 69 10
2006-05-15 08:28:05 51°14.009 2°47.607 101.2 4 111 10.3
2006-05-15 08:29:05 51°13.987 2°47.694 93.9 3.1 107 10.3
2006-05-15 08:30:05 51°13.958 2°47.762 115.6 3.2 135 10.3
2006-05-15 08:31:05 51°13.92 2°47.818 116.8 3 138 10.3
2006-05-15 08:32:05 51°13.895 2°47.874 100.8 2.6 122 10.4
2006-05-15 08:33:05 51°13.884 2°47.934 82.6 2.4 92 10.4
2006-05-15 08:34:05 51°13.897 2°47.999 62.6 2.8 60 10.3
2006-05-15 08:35:05 51°13.92 2°48.068 64.5 3 64 10.3
2006-05-15 08:36:05 51°13.943 2°48.139 64 3 61 10.3
2006-05-15 08:37:05 51°13.966 2°48.21 63.5 3 62 10.3
2006-05-15 08:38:04 51°13.989 2°48.277 63 2.9 64 10.3
2006-05-15 08:39:05 51°14.013 2°48.344 63.4 2.9 62 10.3
2006-05-15 08:40:05 51°14.036 2°48.412 63.9 3 59 10.4
2006-05-15 08:41:05 51°14.061 2°48.477 58.7 2.9 52 10.3
2006-05-15 08:42:05 51°14.091 2°48.536 56 2.8 49 10.3
2006-05-15 08:43:05 51°14.122 2°48.592 56.5 2.8 48 10.4
2006-05-15 08:44:05 51°14.153 2°48.647 56.5 2.8 50 10.5
2006-05-15 08:45:05 51°14.183 2°48.7 56.3 2.7 48 10.5
2006-05-15 08:46:05 51°14.212 2°48.754 58 2.7 51 10.5
2006-05-15 08:47:05 51°14.241 2°48.808 57.9 2.7 49 10.6
2006-05-15 08:48:05 51°14.268 2°48.863 59.4 2.7 55 10.7
2006-05-15 08:49:05 51°14.295 2°48.919 60.4 2.7 51 10.6
2006-05-15 08:50:05 51°14.319 2°48.979 63.1 2.6 58 10.7
2006-05-15 08:51:05 51°14.343 2°49.039 63.1 2.7 59 10.7
2006-05-15 08:52:05 51°14.366 2°49.098 62 2.7 60 10.8
2006-05-15 08:53:05 51°14.396 2°49.15 53.2 2.7 43 10.8
2006-05-15 08:54:05 51°14.432 2°49.195 51.5 2.7 36 10.8
2006-05-15 08:55:05 51°14.466 2°49.241 52.1 2.7 39 10.9
2006-05-15 08:56:05 51°14.498 2°49.287 54.9 2.6 40 10.9
2006-05-15 08:57:05 51°14.529 2°49.337 56 2.6 47 11
2006-05-15 08:58:05 51°14.56 2°49.386 56.1 2.8 45 11.1
2006-05-15 08:59:05 51°14.594 2°49.442 56.4 2.9 46 11.2
2006-05-15 09:00:05 51°14.63 2°49.499 56.4 3 45 11.3
2006-05-15 09:01:05 51°14.665 2°49.558 56.2 3.1 45 11.3
2006-05-15 09:02:05 51°14.7 2°49.617 56.6 3.1 46 11.3
2006-05-15 09:03:05 51°14.718 2°49.701 85.9 3.8 93 11.4
2006-05-15 09:04:05 51°14.704 2°49.803 109.5 4.3 126 11.2
2006-05-15 09:05:05 51°14.625 2°49.817 187.5 5.8 202 11.1
2006-05-15 09:06:05 51°14.57 2°49.699 256.1 5 253 11.1
2006-05-15 09:07:05 51°14.564 2°49.581 293.4 4.2 273 11.1
2006-05-15 09:08:05 51°14.577 2°49.485 320.3 3.3 287 11.2
2006-05-15 09:09:04 51°14.593 2°49.413 337.3 2.7 293 11.3
2006-05-15 09:10:05 51°14.61 2°49.357 354.5 2.1 298 11.4
2006-05-15 09:11:05 51°14.644 2°49.332 26.4 3.2 4 11.4
2006-05-15 09:12:05 51°14.699 2°49.418 76.2 6.5 78 11.5
2006-05-15 09:13:05 51°14.661 2°49.62 115.1 8.6 121 11.3
2006-05-15 09:14:05 51°14.588 2°49.742 129.7 5.3 144 11.2
2006-05-15 09:15:05 51°14.508 2°49.769 173.1 5 190 11
2006-05-15 09:16:05 51°14.429 2°49.716 200.5 5.3 212 10.9
2006-05-15 09:17:04 51°14.362 2°49.624 222 5.5 226 10.8
2006-05-15 09:18:04 51°14.304 2°49.514 228 5.3 231 10.7
2006-05-15 09:19:05 51°14.259 2°49.42 229 3.9 235 10.6
2006-05-15 09:20:05 51°14.224 2°49.344 225.1 3.3 235 10.6
2006-05-15 09:21:05 51°14.192 2°49.279 222.1 3 235 10.6
2006-05-15 09:22:05 51°14.163 2°49.218 220.6 2.8 232 10.6
2006-05-15 09:23:04 51°14.135 2°49.161 219.2 2.7 229 10.6
2006-05-15 09:24:05 51°14.107 2°49.104 218 2.6 230 10.4
2006-05-15 09:25:05 51°14.079 2°49.049 215.5 2.7 234 10.3
2006-05-15 09:26:05 51°14.052 2°48.996 214.6 2.6 231 10.4
2006-05-15 09:27:05 51°14.024 2°48.944 212.6 2.6 228 10.4
2006-05-15 09:28:05 51°13.994 2°48.892 210.3 2.7 225 10.3
2006-05-15 09:29:05 51°13.96 2°48.841 208 2.8 224 10.4
2006-05-15 09:30:05 51°13.925 2°48.789 208.6 2.9 224 10.1
2006-05-15 09:31:05 51°13.889 2°48.737 210.3 2.9 222 10.2
2006-05-15 09:32:05 51°13.854 2°48.683 210.1 3 225 10.3
2006-05-15 09:33:05 51°13.818 2°48.631 210.2 3 225 10.1
2006-05-15 09:34:05 51°13.782 2°48.579 211.9 2.9 224 10.1
2006-05-15 09:35:05 51°13.746 2°48.528 212.5 2.8 220 10.1
2006-05-15 09:36:05 51°13.71 2°48.478 213.6 2.8 219 9.8
2006-05-15 09:37:05 51°13.675 2°48.426 218.4 2.8 224 9.7
2006-05-15 09:38:05 51°13.643 2°48.372 223.7 2.8 228 9.6
2006-05-15 09:39:05 51°13.612 2°48.316 225.7 2.8 229 9.4
2006-05-15 09:40:05 51°13.581 2°48.26 227.3 2.7 230 9.4
2006-05-15 09:41:05 51°13.551 2°48.202 229.4 2.8 231 9.2
2006-05-15 09:42:05 51°13.521 2°48.143 230.3 2.8 232 9.3
2006-05-15 09:43:05 51°13.491 2°48.085 229.4 2.9 233 9.3
2006-05-15 09:44:04 51°13.46 2°48.029 227.9 2.9 229 9.3
2006-05-15 09:45:05 51°13.427 2°47.972 228.1 2.8 227 9.3
2006-05-15 09:46:05 51°13.395 2°47.911 234.1 3.2 231 9.1
2006-05-15 09:47:05 51°13.368 2°47.836 254.1 3.2 247 9.1
2006-05-15 09:48:05 51°13.353 2°47.752 279.6 3.5 264 9.5
2006-05-15 09:49:05 51°13.371 2°47.663 319.8 3.6 301 8.8
2006-05-15 09:50:05 51°13.413 2°47.597 346.6 3.5 328 10
2006-05-15 09:51:05 51°13.462 2°47.567 9.4 2.7 347 10.5
2006-05-15 09:52:05 51°13.496 2°47.561 26.8 1.5 357 10.7
2006-05-15 09:53:05 51°13.513 2°47.561 40.2 0.7 7 10.7
2006-05-15 09:54:05 51°13.52 2°47.56 48 0.2 341 10.7
2006-05-15 09:55:05 51°13.528 2°47.575 58.9 2.2 61 10.7
2006-05-15 09:56:05 51°13.568 2°47.73 68.6 8.8 67 10.5
2006-05-15 09:57:05 51°13.623 2°47.953 70.3 9.1 69 10.4
2006-05-15 09:58:05 51°13.683 2°48.162 66.3 7.9 64 10.5
2006-05-15 09:59:05 51°13.746 2°48.341 63 7.6 61 10.5
2006-05-15 10:00:05 51°13.804 2°48.519 65 7.5 62 10.6
2006-05-15 10:01:05 51°13.863 2°48.696 64.2 7.6 63 10.3
2006-05-15 10:02:05 51°13.922 2°48.872 63 7.6 61 10.3
2006-05-15 10:03:05 51°13.981 2°49.05 65.3 7.5 62 10.2
2006-05-15 10:04:05 51°14.04 2°49.227 64.8 7.6 63 10
2006-05-15 10:05:05 51°14.093 2°49.41 67.7 7.6 67 9.9
2006-05-15 10:06:04 51°14.141 2°49.593 68.6 7.5 68 10
2006-05-15 10:07:04 51°14.19 2°49.777 70.3 7.5 68 9.9
2006-05-15 10:08:05 51°14.233 2°49.967 69.6 7.5 68 9.6
2006-05-15 10:09:05 51°14.27 2°50.159 75.2 7.5 74 9.7
2006-05-15 10:10:05 51°14.305 2°50.352 74.7 7.6 72 9.5
2006-05-15 10:11:05 51°14.34 2°50.545 74.6 7.6 76 9.5
2006-05-15 10:12:04 51°14.382 2°50.765 73.7 10.5 74 9.4
2006-05-15 10:13:04 51°14.433 2°51.052 75.3 11.6 74 9.3
2006-05-15 10:14:05 51°14.492 2°51.348 74 11.6 75 9.2
2006-05-15 10:15:04 51°14.519 2°51.649 83.2 11.7 83 9.3
2006-05-15 10:16:04 51°14.541 2°51.957 85.7 11.8 85 9
2006-05-15 10:17:05 51°14.559 2°52.272 84.4 11.7 82 9
2006-05-15 10:18:04 51°14.567 2°52.579 91.5 11.8 92 8.9
2006-05-15 10:19:05 51°14.568 2°52.896 87.3 11.8 89 8.7
2006-05-15 10:20:05 51°14.551 2°53.211 94.9 12 97 8.4
2006-05-15 10:21:05 51°14.526 2°53.529 97.2 12.3 98 9.3
2006-05-15 10:22:04 51°14.51 2°53.844 91.4 12 90 9.3
2006-05-15 10:23:05 51°14.49 2°54.167 98.7 12.1 98 9.6
2006-05-15 10:24:05 51°14.466 2°54.488 98.7 11.9 97 10.5
2006-05-15 10:25:05 51°14.437 2°54.755 101.8 8.4 102 10.7
2006-05-15 10:26:05 51°14.401 2°54.965 110.3 8.6 110 10.2
2006-05-15 10:27:05 51°14.319 2°55.168 130.1 8.6 127 10.7
2006-05-15 10:28:06 51°14.192 2°55.376 143.7 11.3 142 -999
2006-05-15 10:29:05 51°14.055 2°55.485 160.4 7.9 158 10.4
2006-05-15 10:30:04 51°13.946 2°55.56 160.1 6.9 156 -999
2006-05-15 10:31:05 51°13.846 2°55.627 159.9 5.9 155 10.2
2006-05-15 10:32:06 51°13.769 2°55.693 148.9 4.8 145 -999
2006-05-15 10:33:06 51°13.71 2°55.767 141.8 4.4 137 -999
2006-05-15 10:34:06 51°13.662 2°55.85 132.9 4.2 128 -999
2006-05-15 10:35:04 51°13.625 2°55.938 124.8 3.8 120 9.1
2006-05-15 10:36:06 51°13.605 2°56.017 108.9 2.6 102 -999
2006-05-15 10:37:04 51°13.601 2°56.071 99.9 1.9 94 8.6
2006-05-15 10:38:05 51°13.601 2°56.094 103.8 -999 59 5.5
2006-05-15 10:39:05 51°13.601 2°56.098 108.4 -999 152 5.3
2006-05-15 10:40:05 51°13.602 2°56.099 113.6 0.1 17 5.6
2006-05-15 10:41:05 51°13.603 2°56.1 120.6 0.1 30 5.6
2006-05-15 10:42:05 51°13.602 2°56.099 128.7 -999 235 5.7
2006-05-15 10:43:05 51°13.602 2°56.1 127.7 -999 43 5.6
2006-05-15 10:44:05 51°13.604 2°56.1 127.7 -999 6 5.8
2006-05-15 10:45:05 51°13.604 2°56.1 127.5 -999 70 5.6
2006-05-15 10:46:04 51°13.603 2°56.1 127.5 -999 67 5.5
2006-05-15 10:47:04 51°13.603 2°56.101 127.5 -999 70 5.7
2006-05-15 10:48:05 51°13.604 2°56.1 127.4 -999 69 5.8
2006-05-15 10:49:05 51°13.604 2°56.101 127.4 -999 47 5.7
2006-05-15 10:50:05 51°13.604 2°56.1 127.4 -999 60 5.7
2006-05-15 10:51:04 51°13.601 2°56.098 127.3 -999 74 5.6
2006-05-15 10:52:05 51°13.602 2°56.098 127.3 -999 56 5.7
2006-05-15 10:53:05 51°13.602 2°56.098 127.2 -999 46 5.6
2006-05-15 10:54:05 51°13.603 2°56.098 127.1 -999 75 5.8
2006-05-15 10:55:05 51°13.605 2°56.099 127.1 -999 57 5.7
2006-05-15 10:56:05 51°13.605 2°56.099 127.1 -999 37 5.8
2006-05-15 10:57:05 51°13.605 2°56.099 127 -999 92 5.8
2006-05-15 10:58:05 51°13.604 2°56.1 127 -999 60 -999
2006-05-15 10:59:05 51°13.603 2°56.1 127 -999 136 -999
2006-05-15 11:00:05 51°13.602 2°56.1 126.8 -999 73 -999
2006-05-15 11:01:05 51°13.604 2°56.1 126.8 -999 39 -999
2006-05-15 11:02:05 51°13.603 2°56.1 126.7 -999 49 -999
2006-05-15 11:03:05 51°13.603 2°56.1 126.7 -999 51 -999
2006-05-15 11:04:05 51°13.603 2°56.1 126.6 -999 52 6.1
2006-05-15 11:05:05 51°13.602 2°56.1 126.5 -999 45 6.1
2006-05-15 11:06:04 51°13.603 2°56.099 126.5 -999 110 6.1
2006-05-15 11:07:05 51°13.603 2°56.1 126.4 -999 83 5.9
2006-05-15 11:08:05 51°13.603 2°56.099 126.3 -999 47 5.9
2006-05-15 11:09:05 51°13.603 2°56.1 126.3 -999 44 6
2006-05-15 11:10:05 51°13.602 2°56.1 126.2 -999 56 6
2006-05-15 11:11:05 51°13.601 2°56.1 126.2 -999 33 6
2006-05-15 11:12:05 51°13.601 2°56.1 126.2 -999 85 6
2006-05-15 11:13:05 51°13.601 2°56.1 126.2 -999 41 6
2006-05-15 11:14:05 51°13.602 2°56.099 126.1 -999 40 6.1
2006-05-15 11:15:05 51°13.602 2°56.098 126.1 -999 46 6.2
2006-05-15 11:16:05 51°13.603 2°56.098 126 -999 34 6.3
2006-05-15 11:17:05 51°13.602 2°56.097 126 -999 30 6.3
2006-05-15 11:18:05 51°13.601 2°56.097 125.9 -999 25 6.3
2006-05-15 11:19:05 51°13.601 2°56.098 125.9 -999 20 6.3
2006-05-15 11:20:04 51°13.602 2°56.098 125.8 -999 14 6.2
2006-05-15 11:21:05 51°13.602 2°56.098 125.8 -999 36 6.5
2006-05-15 11:22:05 51°13.602 2°56.098 125.7 -999 28 6.5
2006-05-15 11:23:05 51°13.603 2°56.098 125.7 -999 76 6.5
2006-05-15 11:24:05 51°13.603 2°56.098 125.7 -999 28 6.6
2006-05-15 11:25:05 51°13.603 2°56.098 125.7 -999 4 6.6
2006-05-15 11:26:05 51°13.603 2°56.098 125.6 -999 50 6.4
2006-05-15 11:27:05 51°13.603 2°56.097 125.7 -999 44 6.4
2006-05-15 11:28:05 51°13.603 2°56.098 125.7 -999 54 6.4
2006-05-15 11:29:05 51°13.603 2°56.098 125.7 -999 358 6.4
2006-05-15 11:30:05 51°13.603 2°56.098 125.7 -999 29 6.5
2006-05-15 11:31:05 51°13.603 2°56.098 125.7 -999 7 6.5
2006-05-15 11:32:05 51°13.602 2°56.099 125.7 -999 95 6.5
2006-05-15 11:33:05 51°13.602 2°56.099 125.7 -999 22 6.5
2006-05-15 11:34:05 51°13.603 2°56.098 125.7 -999 27 6.6
2006-05-15 11:35:05 51°13.602 2°56.098 125.8 -999 359 6.7
2006-05-15 11:36:04 51°13.602 2°56.098 125.8 -999 51 6.7
2006-05-15 11:37:05 51°13.602 2°56.1 125.9 -999 25 6.6
2006-05-15 11:38:05 51°13.602 2°56.099 125.8 -999 9 -999
2006-05-15 11:39:04 51°13.602 2°56.099 125.5 -999 352 5.1
2006-05-15 11:40:05 51°13.602 2°56.099 125.9 -999 23 5.2
2006-05-15 11:41:05 51°13.602 2°56.1 119.7 0.1 189 6.8
2006-05-15 11:42:05 51°13.6 2°56.099 106.6 0.1 204 6.7
2006-05-15 11:43:05 51°13.599 2°56.094 93.9 0.6 273 6.9
2006-05-15 11:44:06 51°13.6 2°56.035 90.9 2.8 267 -999
2006-05-15 11:45:05 51°13.599 2°56.01 115.8 0.7 285 4.5
2006-05-15 11:46:06 51°13.625 2°55.948 129.1 4.2 306 -999
2006-05-15 11:47:06 51°13.677 2°55.85 134.9 4.9 313 -999
2006-05-15 11:48:05 51°13.719 2°55.764 115.8 3.9 293 -999
2006-05-15 11:49:05 51°13.731 2°55.718 78.5 0.7 55 -999
2006-05-15 11:50:05 51°13.729 2°55.717 23.9 1.2 208 -999
2006-05-15 11:51:05 51°13.723 2°55.707 348.9 1.9 342 -999
2006-05-15 11:52:05 51°13.806 2°55.651 340.4 8 336 -999
2006-05-15 11:53:05 51°13.942 2°55.554 341.4 9.1 337 4.5
2006-05-15 11:54:05 51°14.079 2°55.458 341.9 9 336 4.6
2006-05-15 11:55:05 51°14.213 2°55.352 331.9 8.9 326 4.8
2006-05-15 11:56:05 51°14.316 2°55.178 312 9.4 308 -999
2006-05-15 11:57:05 51°14.431 2°54.957 308 11.3 308 12.2
2006-05-15 11:58:05 51°14.547 2°54.701 306.2 12.2 305 11.6
2006-05-15 11:59:05 51°14.638 2°54.415 290.2 12 289 11.8
2006-05-15 12:00:05 51°14.678 2°54.104 276.5 11.9 275 12.5
2006-05-15 12:01:05 51°14.698 2°53.787 277.9 12 276 12.3
2006-05-15 12:02:05 51°14.72 2°53.466 279.8 12.2 277 11.9
2006-05-15 12:03:05 51°14.698 2°53.151 260.5 12 258 11.2
2006-05-15 12:04:05 51°14.661 2°52.837 263.1 12.1 260 11.3
2006-05-15 12:05:05 51°14.63 2°52.593 254.3 6.2 252 11.7
2006-05-15 12:06:05 51°14.601 2°52.485 249.4 3.6 249 11.7
2006-05-15 12:07:05 51°14.595 2°52.388 267.7 4.5 271 11.7
2006-05-15 12:08:05 51°14.603 2°52.251 276.5 5.6 281 11.8
2006-05-15 12:09:04 51°14.619 2°52.107 280 5.6 287 11.9
2006-05-15 12:10:05 51°14.681 2°51.992 314.3 5.4 322 12.3
2006-05-15 12:11:05 51°14.744 2°51.926 314.8 4 329 12.4
2006-05-15 12:12:05 51°14.793 2°51.869 309.4 3.4 326 12.7
2006-05-15 12:13:04 51°14.84 2°51.827 312 3.1 330 13
2006-05-15 12:14:05 51°14.878 2°51.78 298.2 2.8 315 13.2
2006-05-15 12:15:05 51°14.908 2°51.723 287.7 2.8 303 13.4
2006-05-15 12:16:05 51°14.932 2°51.659 288.5 2.9 302 13.6
2006-05-15 12:17:05 51°14.957 2°51.593 288 2.9 302 13.8
2006-05-15 12:18:05 51°14.973 2°51.527 272.1 2.6 286 14
2006-05-15 12:19:05 51°14.985 2°51.453 273.5 3 281 14.2
2006-05-15 12:20:05 51°14.989 2°51.372 260.7 3 266 14.3
2006-05-15 12:21:05 51°14.987 2°51.29 263.7 3.2 270 14.4
2006-05-15 12:22:05 51°14.982 2°51.209 255.6 3 262 14.4
2006-05-15 12:23:05 51°14.971 2°51.13 252.6 3 257 14.5
2006-05-15 12:24:05 51°14.961 2°51.051 254.2 3 257 14.5
2006-05-15 12:25:05 51°14.951 2°50.973 252.4 3 257 14.6
2006-05-15 12:26:05 51°14.941 2°50.896 252.7 3 258 14.6
2006-05-15 12:27:05 51°14.931 2°50.82 253.2 2.9 262 14.7
2006-05-15 12:28:05 51°14.927 2°50.741 264.9 3.3 278 14.7
2006-05-15 12:29:05 51°14.949 2°50.652 287.4 3.9 303 14.8
2006-05-15 12:30:05 51°15.003 2°50.583 320.8 4.4 337 15.1
2006-05-15 12:31:05 51°15.083 2°50.58 0.7 5.2 13 15.2
2006-05-15 12:32:05 51°15.162 2°50.649 40.6 5.8 41 15.2
2006-05-15 12:33:05 51°15.215 2°50.762 70.4 5 61 15.3
2006-05-15 12:34:05 51°15.238 2°50.874 105.9 3.9 83 15.4
2006-05-15 12:35:04 51°15.222 2°50.954 166.1 3.5 143 15.3
2006-05-15 12:36:05 51°15.158 2°50.907 237.2 6.7 239 15.1
2006-05-15 12:37:04 51°15.073 2°50.714 235.8 10 236 15
2006-05-15 12:38:05 51°14.974 2°50.483 239.6 10.5 239 15
2006-05-15 12:39:05 51°14.88 2°50.25 238.9 10.5 236 14.9
2006-05-15 12:40:06 51°14.785 2°50.011 239 10.4 238 14.8
2006-05-15 12:41:04 51°14.697 2°49.783 240.2 10.4 238 14.8
2006-05-15 12:42:05 51°14.603 2°49.543 240 10.5 239 14.8
2006-05-15 12:43:05 51°14.508 2°49.307 239.3 10.6 237 14.6
2006-05-15 12:44:05 51°14.414 2°49.07 240.2 10.6 240 14.6
2006-05-15 12:45:05 51°14.321 2°48.832 239.5 10.6 240 14.5
2006-05-15 12:46:05 51°14.226 2°48.597 238.5 10.5 239 14.4
2006-05-15 12:47:05 51°14.134 2°48.359 239.5 10.6 240 14.2
2006-05-15 12:48:05 51°14.066 2°48.181 239.5 5.4 240 14.4
2006-05-15 12:49:05 51°14.031 2°48.106 229.4 2.2 224 14.4
2006-05-15 12:50:05 51°14.027 2°48.104 246.1 0.7 42 14.4
2006-05-15 12:51:05 51°14.04 2°48.118 265.7 1.1 31 14.4
2006-05-15 12:52:05 51°14.057 2°48.136 277 1.2 34 14.4
2006-05-15 12:53:05 51°14.074 2°48.158 278.6 1.3 39 14.5
2006-05-15 12:54:05 51°14.092 2°48.182 274.6 1.4 41 14.5
2006-05-15 12:55:05 51°14.11 2°48.208 272.9 1.6 42 14.5
2006-05-15 12:56:05 51°14.129 2°48.235 272 1.5 43 14.5
2006-05-15 12:57:05 51°14.146 2°48.263 270.6 1.5 45 14.5
2006-05-15 12:58:05 51°14.164 2°48.291 268.5 1.5 47 14.5
2006-05-15 12:59:05 51°14.181 2°48.321 265.1 1.5 51 14.5
2006-05-15 13:00:05 51°14.197 2°48.351 262.7 1.5 46 14.5
2006-05-15 13:01:05 51°14.213 2°48.381 260.7 1.4 55 14.5
2006-05-15 13:02:05 51°14.229 2°48.349 274.2 3.7 284 14.5
2006-05-15 13:03:05 51°14.287 2°48.24 318.8 6.3 331 14.5
2006-05-15 13:04:05 51°14.391 2°48.238 11.6 5.9 21 14.7
2006-05-15 13:05:05 51°14.467 2°48.317 38.9 5.1 42 14.8
2006-05-15 13:06:05 51°14.517 2°48.411 59 4.4 57 14.9
2006-05-15 13:07:05 51°14.547 2°48.501 70.9 3.4 62 15
2006-05-15 13:08:05 51°14.574 2°48.573 59.2 3.1 55 15.1
2006-05-15 13:09:04 51°14.598 2°48.642 70.8 3 64 15.2
2006-05-15 13:10:05 51°14.621 2°48.713 75.1 2.9 63 15.2
2006-05-15 13:11:05 51°14.643 2°48.783 77.6 3 64 15.2
2006-05-15 13:12:05 51°14.662 2°48.855 82.9 2.9 71 15.3
2006-05-15 13:13:05 51°14.68 2°48.926 85.2 2.9 68 15.3
2006-05-15 13:14:05 51°14.699 2°48.997 81.7 3 67 15.3
2006-05-15 13:15:05 51°14.718 2°49.069 83.9 2.9 69 15.4
2006-05-15 13:16:05 51°14.735 2°49.141 84.1 2.9 67 15.4
2006-05-15 13:17:05 51°14.752 2°49.213 87.9 2.9 69 15.4
2006-05-15 13:18:05 51°14.768 2°49.286 86.8 2.9 68 15.4
2006-05-15 13:19:05 51°14.786 2°49.357 86.1 2.8 68 15.4
2006-05-15 13:20:05 51°14.803 2°49.422 85.3 2.7 64 15.4
2006-05-15 13:21:05 51°14.823 2°49.494 82.3 3.1 67 15.4
2006-05-15 13:22:05 51°14.844 2°49.574 84.9 3.3 68 15.4
2006-05-15 13:23:05 51°14.865 2°49.656 85.3 3.4 67 15.4
2006-05-15 13:24:05 51°14.885 2°49.739 86 3.3 70 15.5
2006-05-15 13:25:05 51°14.906 2°49.822 83.5 3.4 64 15.4
2006-05-15 13:26:05 51°14.929 2°49.905 83.3 3.4 67 15.5
2006-05-15 13:27:05 51°14.952 2°49.988 81.6 3.4 66 15.4
2006-05-15 13:28:05 51°14.975 2°50.073 85.1 3.4 70 15.4
2006-05-15 13:29:05 51°14.996 2°50.159 87.7 3.4 68 15.4
2006-05-15 13:30:05 51°15.016 2°50.244 87.6 3.4 68 15.4
2006-05-15 13:31:05 51°15.036 2°50.328 88 3.4 72 15.5
2006-05-15 13:32:05 51°15.046 2°50.423 107.6 3.7 86 15.3
2006-05-15 13:33:05 51°15.043 2°50.539 115.4 4.7 98 15.4
2006-05-15 13:34:05 51°15.012 2°50.646 154.9 4.2 132 15.2
2006-05-15 13:35:05 51°14.959 2°50.682 197.9 3.1 180 15.1
2006-05-15 13:36:05 51°14.925 2°50.641 243.3 2.5 248 15
2006-05-15 13:37:05 51°14.931 2°50.58 278.7 2.4 303 15.1
2006-05-15 13:38:05 51°14.972 2°50.553 326.2 3 356 15.1
2006-05-15 13:39:05 51°15.025 2°50.575 13.6 3.6 29 15.3
2006-05-15 13:40:05 51°15.071 2°50.654 67.5 4.5 61 15.3
2006-05-15 13:41:05 51°15.09 2°50.87 95.7 11.6 89 15.2
2006-05-15 13:42:05 51°15.085 2°51.225 98.7 14 92 14.9
2006-05-15 13:43:05 51°15.073 2°51.603 102.7 14.1 95 14.5
2006-05-15 13:44:05 51°15.027 2°51.966 111.5 13.9 103 13.8
2006-05-15 13:45:05 51°14.967 2°52.318 113.9 13.8 105 13.2
2006-05-15 13:46:05 51°14.911 2°52.673 111.9 13.7 104 12.8
2006-05-15 13:47:05 51°14.853 2°53.026 112.2 13.8 105 12.9
2006-05-15 13:48:05 51°14.79 2°53.369 116.3 13.2 111 13
2006-05-15 13:49:05 51°14.72 2°53.709 114.2 13.7 107 12.9
2006-05-15 13:50:04 51°14.669 2°54.008 114.1 10.3 103 14.3
2006-05-15 13:51:05 51°14.633 2°54.264 117.4 9.3 106 13.2
2006-05-15 13:52:04 51°14.591 2°54.495 125.7 9.1 112 12.9
2006-05-15 13:53:05 51°14.521 2°54.719 134.3 8.3 119 12.9
2006-05-15 13:54:05 51°14.457 2°54.896 139.1 7.4 120 12.8
2006-05-15 13:55:05 51°14.37 2°55.081 144.2 9.6 136 13.5
2006-05-15 13:56:05 51°14.269 2°55.245 137.9 7.3 135 -999
2006-05-15 13:57:05 51°14.184 2°55.357 150.7 6.3 149 -999
2006-05-15 13:58:05 51°14.092 2°55.43 157.5 6 154 13.3
2006-05-15 13:59:05 51°14.012 2°55.492 160.8 5 158 13.3
2006-05-15 14:00:05 51°13.937 2°55.544 160.5 4.8 157 13.3
2006-05-15 14:01:05 51°13.865 2°55.596 158.4 4.7 154 13.2
2006-05-15 14:02:05 51°13.797 2°55.651 155.9 4.6 152 13.1
2006-05-15 14:03:05 51°13.737 2°55.724 139.8 4.5 136 13.1
2006-05-15 14:04:06 51°13.687 2°55.815 132.6 4.7 128 12.8
2006-05-15 14:05:06 51°13.641 2°55.917 127.7 4.7 123 11.9
2006-05-15 14:06:06 51°13.612 2°56.001 117.7 3.1 113 11.8
2006-05-15 14:07:06 51°13.601 2°56.07 101.7 2.4 95 11.6
2006-05-15 14:08:06 51°13.602 2°56.093 98.3 0.2 25 8.2